createdAt,value
2022-11-14T00:03:14.623Z,5.57
2022-11-14T00:06:49.500Z,5.63
2022-11-14T00:10:25.709Z,5.66
2022-11-14T00:13:59.913Z,5.66
2022-11-14T00:17:34.391Z,5.63
2022-11-14T00:21:09.913Z,5.65
2022-11-14T00:24:44.016Z,5.64
2022-11-14T00:28:20.366Z,5.66
2022-11-14T00:31:54.168Z,5.65
2022-11-14T00:35:27.905Z,5.66
2022-11-14T00:39:03.754Z,5.65
2022-11-14T00:42:37.719Z,5.58
2022-11-14T00:46:12.118Z,5.64
2022-11-14T00:49:46.368Z,5.59
2022-11-14T00:53:21.388Z,5.59
2022-11-14T00:56:55.241Z,5.48
2022-11-14T01:00:29.684Z,5.45
2022-11-14T01:04:04.213Z,5.50
2022-11-14T01:07:38.492Z,5.53
2022-11-14T01:11:19.062Z,5.42
2022-11-14T01:14:52.877Z,5.50
2022-11-14T01:18:28.646Z,5.29
2022-11-14T01:22:06.302Z,5.35
2022-11-14T01:25:40.392Z,5.37
2022-11-14T01:29:17.745Z,5.42
2022-11-14T01:32:51.473Z,5.43
2022-11-14T01:36:26.722Z,5.43
2022-11-14T01:40:01.285Z,5.39
2022-11-14T01:43:39.936Z,5.39
2022-11-14T01:47:14.863Z,5.37
2022-11-14T01:50:49.976Z,5.38
2022-11-14T01:54:30.458Z,5.38
2022-11-14T01:58:06.383Z,5.40
2022-11-14T02:01:46.332Z,5.38
2022-11-14T02:05:23.698Z,5.42
2022-11-14T02:08:59.712Z,5.24
2022-11-14T02:12:34.867Z,5.29
2022-11-14T02:16:09.478Z,5.36
2022-11-14T02:19:58.612Z,5.32
2022-11-14T02:23:40.262Z,5.29
2022-11-14T02:27:16.693Z,5.32
2022-11-14T02:30:53.781Z,5.32
2022-11-14T02:34:27.861Z,5.32
2022-11-14T02:38:01.668Z,5.21
2022-11-14T02:41:35.617Z,5.28
2022-11-14T02:45:09.532Z,5.29
2022-11-14T02:48:43.758Z,5.30
2022-11-14T02:52:17.698Z,5.28
2022-11-14T02:55:52.228Z,5.33
2022-11-14T02:59:26.112Z,5.36
2022-11-14T03:03:02.305Z,5.33
2022-11-14T03:06:36.278Z,5.31
2022-11-14T03:10:10.511Z,5.30
2022-11-14T03:13:44.671Z,5.25
2022-11-14T03:17:19.278Z,5.22
2022-11-14T03:20:54.442Z,5.22
2022-11-14T03:24:28.909Z,5.16
2022-11-14T03:28:03.031Z,5.16
2022-11-14T03:31:37.153Z,5.14
2022-11-14T03:35:12.937Z,5.14
2022-11-14T03:38:46.784Z,5.19
2022-11-14T03:42:21.878Z,5.18
2022-11-14T03:45:56.181Z,5.19
2022-11-14T03:49:31.194Z,5.22
2022-11-14T03:53:05.333Z,5.23
2022-11-14T03:56:39.787Z,5.22
2022-11-14T04:00:17.132Z,5.16
2022-11-14T04:03:50.787Z,5.19
2022-11-14T04:07:24.734Z,5.21
2022-11-14T04:10:58.958Z,5.17
2022-11-14T04:14:32.901Z,5.24
2022-11-14T04:18:06.860Z,5.25
2022-11-14T04:21:41.045Z,5.22
2022-11-14T04:25:17.059Z,5.21
2022-11-14T04:28:50.918Z,5.19
2022-11-14T04:32:25.201Z,5.20
2022-11-14T04:35:59.583Z,5.17
2022-11-14T04:39:33.768Z,5.23
2022-11-14T04:43:07.869Z,5.28
2022-11-14T04:46:41.991Z,5.27
2022-11-14T04:50:17.746Z,5.18
2022-11-14T04:53:51.797Z,5.23
2022-11-14T04:57:25.790Z,5.23
2022-11-14T05:00:59.970Z,5.07
2022-11-14T05:04:34.356Z,5.09
2022-11-14T05:08:08.369Z,5.06
2022-11-14T05:11:42.488Z,5.07
2022-11-14T05:15:18.304Z,5.06
2022-11-14T05:18:54.619Z,5.03
2022-11-14T05:22:31.244Z,4.89
2022-11-14T05:26:14.840Z,4.91
2022-11-14T05:29:49.218Z,4.86
2022-11-14T05:33:23.501Z,4.87
2022-11-14T05:36:57.348Z,4.73
2022-11-14T05:40:31.595Z,4.72
2022-11-14T05:44:05.404Z,4.81
2022-11-14T05:47:39.106Z,4.89
2022-11-14T05:51:17.372Z,4.89
2022-11-14T05:54:51.492Z,4.78
2022-11-14T05:58:25.609Z,4.75
2022-11-14T06:01:59.583Z,4.80
2022-11-14T06:05:33.849Z,4.81
2022-11-14T06:09:07.609Z,4.85
2022-11-14T06:12:42.882Z,4.81
2022-11-14T06:16:20.799Z,4.81
2022-11-14T06:19:54.888Z,4.79
2022-11-14T06:23:28.800Z,4.91
2022-11-14T06:27:02.598Z,4.88
2022-11-14T06:30:36.644Z,4.90
2022-11-14T06:34:12.311Z,4.88
2022-11-14T06:37:49.869Z,4.86
2022-11-14T06:41:26.573Z,4.86
2022-11-14T06:45:00.375Z,4.84
2022-11-14T06:48:35.626Z,4.86
2022-11-14T06:52:09.937Z,4.82
2022-11-14T06:55:45.153Z,4.81
2022-11-14T06:59:19.560Z,4.81
2022-11-14T07:02:57.086Z,4.79
2022-11-14T07:06:34.771Z,4.79
2022-11-14T07:10:09.643Z,4.82
2022-11-14T07:13:44.390Z,4.84
2022-11-14T07:17:21.593Z,4.76
2022-11-14T07:20:55.824Z,4.77
2022-11-14T07:24:31.883Z,4.72
2022-11-14T07:28:06.885Z,4.71
2022-11-14T07:31:40.863Z,4.72
2022-11-14T07:35:19.376Z,4.66
2022-11-14T07:38:55.866Z,4.66
2022-11-14T07:42:41.880Z,4.67
2022-11-14T07:46:19.669Z,4.69
2022-11-14T07:49:56.034Z,4.69
2022-11-14T07:53:54.260Z,4.72
2022-11-14T07:57:07.814Z,4.65
2022-11-14T08:00:48.492Z,4.67
2022-11-14T08:04:31.549Z,4.68
2022-11-14T08:08:08.827Z,4.66
2022-11-14T08:11:55.159Z,4.63
2022-11-14T08:15:29.616Z,4.65
2022-11-14T08:19:09.376Z,4.57
2022-11-14T08:22:43.412Z,4.60
2022-11-14T08:26:17.581Z,4.66
2022-11-14T08:29:51.876Z,4.75
2022-11-14T08:33:26.814Z,4.76
2022-11-14T08:37:01.916Z,4.71
2022-11-14T08:40:36.410Z,4.76
2022-11-14T08:44:12.482Z,4.82
2022-11-14T08:47:47.298Z,4.81
2022-11-14T08:51:21.423Z,4.74
2022-11-14T08:54:57.402Z,4.72
2022-11-14T08:58:32.968Z,4.77
2022-11-14T09:02:07.898Z,4.77
2022-11-14T09:05:42.516Z,4.75
2022-11-14T09:09:17.524Z,4.83
2022-11-14T09:12:52.242Z,4.83
2022-11-14T09:16:29.443Z,4.89
2022-11-14T09:20:03.388Z,4.93
2022-11-14T09:23:39.169Z,4.95
2022-11-14T09:27:13.369Z,4.98
2022-11-14T09:30:47.544Z,4.96
2022-11-14T09:34:21.914Z,4.96
2022-11-14T09:37:57.156Z,4.95
2022-11-14T09:41:40.549Z,5.00
2022-11-14T09:45:20.176Z,5.06
2022-11-14T09:48:52.140Z,5.08
2022-11-14T09:52:34.050Z,5.12
2022-11-14T09:56:08.365Z,5.12
2022-11-14T09:59:42.483Z,5.08
2022-11-14T10:03:22.506Z,5.04
2022-11-14T10:07:04.154Z,5.06
2022-11-14T10:10:52.640Z,5.01
2022-11-14T10:14:44.406Z,4.99
2022-11-14T10:18:34.299Z,5.04
2022-11-14T10:22:23.457Z,4.95
2022-11-14T10:26:01.772Z,4.95
2022-11-14T10:30:02.106Z,5.02
2022-11-14T10:33:45.631Z,5.07
2022-11-14T10:37:27.187Z,4.99
2022-11-14T10:41:05.067Z,5.02
2022-11-14T10:44:48.045Z,4.94
2022-11-14T10:48:28.946Z,4.96
2022-11-14T10:52:07.309Z,5.02
2022-11-14T10:56:03.040Z,4.92
2022-11-14T10:59:20.302Z,4.92
2022-11-14T11:03:04.679Z,4.93
2022-11-14T11:06:39.428Z,4.91
2022-11-14T11:10:40.641Z,4.88
2022-11-14T11:14:22.183Z,4.84
2022-11-14T11:18:09.096Z,4.84
2022-11-14T11:21:56.820Z,4.72
2022-11-14T11:25:38.307Z,4.68
2022-11-14T11:29:22.440Z,4.69
2022-11-14T11:32:58.100Z,4.73
2022-11-14T11:36:36.375Z,4.62
2022-11-14T11:40:19.397Z,4.73
2022-11-14T11:43:58.045Z,4.51
2022-11-14T11:47:30.765Z,4.62
2022-11-14T11:51:05.487Z,4.71
2022-11-14T11:54:44.821Z,4.77
2022-11-14T11:58:28.492Z,4.83
2022-11-14T12:02:03.501Z,4.89
2022-11-14T12:05:45.631Z,4.85
2022-11-14T12:09:42.480Z,4.94
2022-11-14T12:13:32.047Z,4.99
2022-11-14T12:18:05.398Z,4.95
2022-11-14T12:21:58.599Z,4.84
2022-11-14T12:26:03.001Z,4.94
2022-11-14T12:30:05.257Z,5.06
2022-11-14T12:33:42.961Z,5.07
2022-11-14T12:37:24.062Z,5.14
2022-11-14T12:41:04.872Z,5.00
2022-11-14T12:44:47.901Z,5.10
2022-11-14T12:48:39.274Z,5.18
2022-11-14T12:52:22.471Z,5.20
2022-11-14T12:56:18.348Z,5.22
2022-11-14T13:00:10.181Z,5.24
2022-11-14T13:04:08.105Z,5.29
2022-11-14T13:07:51.621Z,5.30
2022-11-14T13:12:02.634Z,5.30
2022-11-14T13:15:54.147Z,5.39
2022-11-14T13:19:46.558Z,5.37
2022-11-14T13:24:03.373Z,5.36
2022-11-14T13:28:05.835Z,5.41
2022-11-14T13:31:29.341Z,5.26
2022-11-14T13:35:09.305Z,5.38
2022-11-14T13:39:24.470Z,5.45
2022-11-14T13:43:07.423Z,5.55
2022-11-14T13:46:56.175Z,5.59
2022-11-14T13:50:37.670Z,5.64
2022-11-14T13:54:18.464Z,5.57
2022-11-14T13:58:00.544Z,5.60
2022-11-14T14:01:54.833Z,5.59
2022-11-14T14:05:41.930Z,5.58
2022-11-14T14:09:26.850Z,5.60
2022-11-14T14:13:12.717Z,5.61
2022-11-14T14:16:55.095Z,5.62
2022-11-14T14:20:39.805Z,5.60
2022-11-14T14:24:23.549Z,5.59
2022-11-14T14:28:09.540Z,5.62
2022-11-14T14:31:49.250Z,5.63
2022-11-14T14:35:40.479Z,5.61
2022-11-14T14:39:29.476Z,5.64
2022-11-14T14:43:05.156Z,5.66
2022-11-14T14:46:44.556Z,5.66
2022-11-14T14:53:36.615Z,5.69
2022-11-14T14:57:23.481Z,5.71
2022-11-14T15:01:06.267Z,5.72
2022-11-14T15:04:44.052Z,5.74
2022-11-14T15:08:23.638Z,5.73
2022-11-14T15:12:01.524Z,5.72
2022-11-14T15:15:37.391Z,5.55
2022-11-14T15:19:18.696Z,5.57
2022-11-14T15:23:12.186Z,5.57
2022-11-14T15:26:47.455Z,5.57
2022-11-14T15:30:37.337Z,5.57
2022-11-14T15:34:27.149Z,5.58
2022-11-14T15:42:20.050Z,5.60
2022-11-14T15:45:54.158Z,5.62
2022-11-14T15:49:34.738Z,5.65
2022-11-14T15:53:14.437Z,5.63
2022-11-14T15:56:51.344Z,5.66
2022-11-14T16:00:32.627Z,5.69
2022-11-14T16:04:06.926Z,5.72
2022-11-14T16:07:41.452Z,5.69
2022-11-14T16:11:16.207Z,5.69
2022-11-14T16:14:51.408Z,5.71
2022-11-14T16:18:26.200Z,5.70
2022-11-14T16:22:03.352Z,5.68
2022-11-14T16:25:39.095Z,5.65
2022-11-14T16:29:15.210Z,5.59
2022-11-14T16:32:50.958Z,5.57
2022-11-14T16:36:28.126Z,5.55
2022-11-14T16:40:02.596Z,5.55
2022-11-14T16:43:41.374Z,5.57
2022-11-14T16:47:15.898Z,5.61
2022-11-14T16:50:52.894Z,5.61
2022-11-14T16:54:29.931Z,5.63
2022-11-14T16:58:04.405Z,5.62
2022-11-14T17:01:41.041Z,5.65
2022-11-14T17:08:31.601Z,5.63
2022-11-14T17:12:06.537Z,5.67
2022-11-14T17:15:41.983Z,5.67
2022-11-14T17:19:17.364Z,5.69
2022-11-14T17:22:51.898Z,5.71
2022-11-14T17:26:26.278Z,5.67
2022-11-14T17:30:05.247Z,5.67
2022-11-14T17:33:39.423Z,5.66
2022-11-14T17:37:14.158Z,5.66
2022-11-14T17:40:48.824Z,5.60
2022-11-14T17:44:23.420Z,5.56
2022-11-14T17:47:58.202Z,5.60
2022-11-14T17:51:32.838Z,5.66
2022-11-14T17:55:07.294Z,5.66
2022-11-14T17:58:43.957Z,5.58
2022-11-14T18:02:22.669Z,5.63
2022-11-14T18:05:57.329Z,5.70
2022-11-14T18:09:31.380Z,5.73
2022-11-14T18:13:06.009Z,5.70
2022-11-14T18:17:11.137Z,5.69
2022-11-14T18:20:20.973Z,5.62
2022-11-14T18:24:00.561Z,5.46
2022-11-14T18:27:35.314Z,5.53
2022-11-14T18:31:11.516Z,5.57
2022-11-14T18:34:46.363Z,5.63
2022-11-14T18:38:21.066Z,5.61
2022-11-14T18:41:55.270Z,5.64
2022-11-14T18:45:53.499Z,5.65
2022-11-14T18:52:44.310Z,5.48
2022-11-14T18:56:21.257Z,5.49
2022-11-14T18:59:55.466Z,5.41
2022-11-14T19:03:30.287Z,5.45
2022-11-14T19:07:05.048Z,5.47
2022-11-14T19:10:39.354Z,5.32
2022-11-14T19:14:14.642Z,5.40
2022-11-14T19:18:05.644Z,5.44
2022-11-14T19:21:40.682Z,5.41
2022-11-14T19:25:16.978Z,5.41
2022-11-14T19:28:55.167Z,5.40
2022-11-14T19:32:34.958Z,5.29
2022-11-14T19:36:21.106Z,5.38
2022-11-14T19:39:55.109Z,5.18
2022-11-14T19:43:38.675Z,5.26
2022-11-14T19:47:12.847Z,5.35
2022-11-14T19:50:51.312Z,5.33
2022-11-14T19:54:33.001Z,5.32
2022-11-14T19:58:08.392Z,5.28
2022-11-14T20:01:47.963Z,5.15
2022-11-14T20:05:22.738Z,5.17
2022-11-14T20:09:00.666Z,5.09
2022-11-14T20:12:36.063Z,5.17
2022-11-14T20:24:57.993Z,4.90
2022-11-14T20:28:32.584Z,5.00
2022-11-14T20:32:15.787Z,4.98
2022-11-14T20:39:42.362Z,4.88
2022-11-14T20:44:00.203Z,4.86
2022-11-14T20:47:48.829Z,4.89
2022-11-14T20:51:33.124Z,4.88
2022-11-14T20:55:36.213Z,4.85
2022-11-14T20:59:25.441Z,4.82
2022-11-14T21:03:06.866Z,4.91
2022-11-14T21:06:43.794Z,4.92
2022-11-14T21:10:54.564Z,4.92
2022-11-14T21:14:43.879Z,4.93
2022-11-14T21:18:31.571Z,4.96
2022-11-14T21:22:10.010Z,4.89
2022-11-14T21:25:44.152Z,4.86
2022-11-14T21:29:39.737Z,4.87
2022-11-14T21:33:14.381Z,4.79
2022-11-14T21:36:48.979Z,4.74
2022-11-14T21:40:25.607Z,4.77
2022-11-14T21:44:03.645Z,4.76
2022-11-14T21:47:38.705Z,4.78
2022-11-14T21:51:19.071Z,4.76
2022-11-14T21:54:53.165Z,4.75
2022-11-14T21:58:29.853Z,4.69
2022-11-14T22:02:21.468Z,4.70
2022-11-14T22:06:02.444Z,4.67
2022-11-14T22:09:43.961Z,4.64
2022-11-14T22:13:13.878Z,4.62
2022-11-14T22:16:50.543Z,4.56
2022-11-14T22:20:26.937Z,4.56
2022-11-14T22:24:02.481Z,4.61
2022-11-14T22:27:37.520Z,4.65
2022-11-14T22:31:15.161Z,4.71
2022-11-14T22:34:49.597Z,4.56
2022-11-14T22:38:23.328Z,4.66
2022-11-14T22:41:59.794Z,4.67
2022-11-14T22:45:34.105Z,4.70
2022-11-14T22:49:08.997Z,4.70
2022-11-14T22:52:43.274Z,4.72
2022-11-14T22:56:19.687Z,4.67
2022-11-14T22:59:53.716Z,4.57
2022-11-14T23:03:28.547Z,4.57
2022-11-14T23:07:04.136Z,4.50
2022-11-14T23:10:40.824Z,4.55
2022-11-14T23:14:27.128Z,4.58
2022-11-14T23:18:01.172Z,4.65
2022-11-14T23:21:39.172Z,4.59
2022-11-14T23:25:16.483Z,4.57
2022-11-14T23:28:51.017Z,4.60
2022-11-14T23:32:24.914Z,4.62
2022-11-14T23:35:59.366Z,4.63
2022-11-14T23:39:33.448Z,4.58
2022-11-14T23:43:07.459Z,4.42
2022-11-14T23:46:42.396Z,4.51
2022-11-14T23:50:17.800Z,4.48
2022-11-14T23:53:52.734Z,4.26
2022-11-14T23:57:26.922Z,4.31
